Time;durP1;ratioP1;P1;durP2;ratioP2;P2;SDS_P1;SDS_P2;PMS_P1;PMS_P2;Temp;Humidity;BMP_temperature;BMP_pressure;BME280_temperature;BME280_humidity;BME280_pressure;Samples;Min_cycle;Max_cycle;Signal;HPM_P1;HPM_P2
2023/07/30 00:01:09;;;;;;;;;2.00;1.00;;;;;25.93;100.00;100998.47;5012298;28;65884;-84
2023/07/30 00:03:35;;;;;;;;;1.00;1.00;;;;;25.96;100.00;101002.88;5026592;28;53102;-85
2023/07/30 00:06:00;;;;;;;;;3.00;1.00;;;;;25.92;100.00;101003.97;5022330;28;47844;-85
2023/07/30 00:08:25;;;;;;;;;3.00;1.00;;;;;25.96;100.00;101009.16;5021512;28;45436;-84
2023/07/30 00:10:51;;;;;;;;;1.00;1.00;;;;;25.96;100.00;101008.28;5030508;28;61600;-84
2023/07/30 00:13:16;;;;;;;;;1.33;1.33;;;;;25.90;100.00;101004.06;5029018;28;48199;-84
2023/07/30 00:15:42;;;;;;;;;1.00;1.00;;;;;25.90;100.00;101005.91;5002798;28;47753;-84
2023/07/30 00:18:07;;;;;;;;;1.00;1.00;;;;;25.93;100.00;101006.59;5036771;28;47009;-85
2023/07/30 00:20:35;;;;;;;;;0.33;0.00;;;;;25.93;100.00;101003.03;5036048;28;61607;-84
2023/07/30 00:23:00;;;;;;;;;1.00;1.00;;;;;25.93;100.00;101003.88;5018262;28;45226;-84
2023/07/30 00:25:26;;;;;;;;;1.00;1.00;;;;;25.89;100.00;100996.91;5014911;28;62101;-84
2023/07/30 00:27:51;;;;;;;;;0.00;0.00;;;;;25.83;100.00;101000.78;5027540;28;63101;-85
2023/07/30 00:30:16;;;;;;;;;0.00;0.00;;;;;25.87;100.00;100998.78;5028710;28;63911;-85
2023/07/30 00:32:43;;;;;;;;;1.00;0.00;;;;;25.78;100.00;100994.75;5030489;28;53695;-85
2023/07/30 00:35:09;;;;;;;;;2.00;1.00;;;;;25.72;100.00;101000.38;5030725;28;46917;-84
2023/07/30 00:37:35;;;;;;;;;1.33;1.33;;;;;25.68;100.00;100995.22;5022554;28;45288;-84
2023/07/30 00:40:01;;;;;;;;;1.00;1.00;;;;;25.72;100.00;100999.50;5016841;28;45371;-85
2023/07/30 00:42:26;;;;;;;;;1.00;1.00;;;;;25.74;100.00;101011.16;5030410;28;45336;-85
2023/07/30 00:44:52;;;;;;;;;2.00;2.00;;;;;25.57;100.00;101011.97;5021536;28;70657;-85
2023/07/30 00:47:17;;;;;;;;;1.67;0.67;;;;;25.52;100.00;101014.91;5023367;28;64998;-83
2023/07/30 00:49:42;;;;;;;;;1.00;1.00;;;;;25.57;100.00;101017.41;5019802;28;45321;-84
2023/07/30 00:52:08;;;;;;;;;2.00;2.00;;;;;25.52;100.00;101012.19;5036021;28;45582;-84
2023/07/30 00:54:33;;;;;;;;;1.00;1.00;;;;;25.48;100.00;101031.34;5034414;28;64459;-85
2023/07/30 00:56:59;;;;;;;;;1.33;0.00;;;;;25.39;100.00;101029.06;5034895;28;66574;-85
2023/07/30 00:59:24;;;;;;;;;3.00;2.00;;;;;25.38;100.00;101032.72;5022324;28;45389;-85
2023/07/30 01:01:51;;;;;;;;;1.00;1.00;;;;;25.41;100.00;101032.56;5032314;28;45478;-85
2023/07/30 01:04:16;;;;;;;;;1.00;0.00;;;;;25.36;100.00;101038.22;5029022;28;45735;-84
2023/07/30 01:06:42;;;;;;;;;1.00;1.00;;;;;25.33;100.00;101035.66;5032490;28;67141;-84
2023/07/30 01:09:08;;;;;;;;;0.33;0.33;;;;;25.26;100.00;101036.91;5032616;28;45145;-84
2023/07/30 01:11:33;;;;;;;;;0.67;0.67;;;;;25.19;100.00;101038.09;5029373;28;45505;-84
2023/07/30 01:13:59;;;;;;;;;5.67;0.00;;;;;25.25;100.00;101051.38;5018792;28;45320;-85
2023/07/30 01:16:25;;;;;;;;;2.67;0.00;;;;;25.23;100.00;101045.13;5015559;28;66875;-85
2023/07/30 01:18:50;;;;;;;;;2.33;0.67;;;;;25.16;100.00;101046.38;5014817;28;45246;-85
2023/07/30 01:21:16;;;;;;;;;0.67;0.00;;;;;25.23;100.00;101058.66;5034937;28;45574;-85
2023/07/30 01:23:41;;;;;;;;;2.00;0.00;;;;;25.26;100.00;101058.53;5035954;28;64386;-84
2023/07/30 01:26:23;;;;;;;;;1.67;0.67;;;;;25.33;100.00;101063.56;5030979;28;45458;-84
2023/07/30 01:28:51;;;;;;;;;1.00;1.00;;;;;25.33;100.00;101058.16;5018693;28;45460;-84
2023/07/30 01:31:18;;;;;;;;;0.00;0.00;;;;;25.26;100.00;101069.31;5035765;28;45475;-85
2023/07/30 01:33:47;;;;;;;;;4.00;0.67;;;;;25.26;100.00;101075.59;5032499;28;46684;-84
2023/07/30 01:36:15;;;;;;;;;2.67;0.00;;;;;25.31;100.00;101075.41;5017790;28;45406;-84
2023/07/30 01:38:40;;;;;;;;;1.67;1.67;;;;;25.34;100.00;101080.66;5026062;28;45170;-84
2023/07/30 01:41:05;;;;;;;;;1.67;1.67;;;;;25.37;100.00;101077.81;5027598;28;61115;-85
2023/07/30 01:43:31;;;;;;;;;1.33;1.00;;;;;25.37;100.00;101083.22;5037603;28;65874;-84
2023/07/30 01:45:56;;;;;;;;;1.67;0.33;;;;;25.36;100.00;101083.31;5028720;28;62440;-85
2023/07/30 01:48:22;;;;;;;;;2.67;0.67;;;;;25.33;100.00;101087.88;5030057;28;57077;-83
2023/07/30 01:50:48;;;;;;;;;1.33;1.00;;;;;25.32;100.00;101096.06;5038893;28;56823;-85
2023/07/30 01:53:14;;;;;;;;;1.67;0.67;;;;;25.25;100.00;101084.66;5033748;28;45727;-84
2023/07/30 01:55:43;;;;;;;;;1.67;0.00;;;;;25.26;100.00;101096.34;5021000;28;45273;-84
2023/07/30 01:58:08;;;;;;;;;1.00;1.00;;;;;25.17;100.00;101092.25;5035607;28;45477;-83
2023/07/30 02:00:34;;;;;;;;;0.67;0.67;;;;;25.23;100.00;101096.47;5039526;28;45241;-84
2023/07/30 02:03:00;;;;;;;;;2.00;1.00;;;;;25.23;100.00;101097.34;5030347;28;46686;-85
2023/07/30 02:05:25;;;;;;;;;4.00;0.67;;;;;25.25;100.00;101102.72;5027925;28;45519;-85
2023/07/30 02:07:51;;;;;;;;;1.67;0.67;;;;;25.25;100.00;101092.78;5022283;28;45280;-84
2023/07/30 02:10:16;;;;;;;;;1.67;0.00;;;;;25.22;100.00;101105.53;5027179;28;45369;-85
2023/07/30 02:12:41;;;;;;;;;1.33;0.67;;;;;25.15;100.00;101102.25;5023968;28;46797;-84
2023/07/30 02:15:07;;;;;;;;;1.33;1.00;;;;;25.16;100.00;101105.81;5029272;28;64932;-85
2023/07/30 02:17:32;;;;;;;;;0.67;0.67;;;;;25.18;100.00;101106.63;5034308;28;45518;-84
2023/07/30 02:19:57;;;;;;;;;1.67;1.67;;;;;25.23;100.00;101113.56;5016799;28;59484;-84
2023/07/30 02:22:23;;;;;;;;;1.67;0.00;;;;;25.18;100.00;101115.59;5030985;28;71011;-83
2023/07/30 02:24:48;;;;;;;;;1.00;1.00;;;;;25.02;100.00;101128.91;5038655;28;45394;-84
2023/07/30 02:27:13;;;;;;;;;0.67;0.67;;;;;25.06;100.00;101129.69;5036791;28;57014;-84
2023/07/30 02:29:39;;;;;;;;;4.67;0.67;;;;;24.97;100.00;101120.13;5025097;28;45439;-83
2023/07/30 02:32:05;;;;;;;;;4.00;1.00;;;;;24.81;100.00;101129.84;5024266;28;65483;-84
2023/07/30 02:34:30;;;;;;;;;0.00;0.00;;;;;24.82;100.00;101123.47;5022531;28;45774;-84
2023/07/30 02:36:55;;;;;;;;;3.00;0.67;;;;;24.83;100.00;101128.84;5030297;28;45351;-84
2023/07/30 02:39:21;;;;;;;;;0.33;0.33;;;;;24.87;100.00;101134.97;5030486;28;45253;-85
2023/07/30 02:41:46;;;;;;;;;0.00;0.00;;;;;24.80;100.00;101136.19;5037748;28;63647;-85
2023/07/30 02:44:11;;;;;;;;;2.00;0.33;;;;;24.77;100.00;101131.81;5021826;28;61344;-83
2023/07/30 02:46:37;;;;;;;;;1.67;0.00;;;;;24.82;100.00;101145.09;5030489;28;62455;-83
2023/07/30 02:49:02;;;;;;;;;2.33;0.67;;;;;24.78;100.00;101133.56;5036688;28;56786;-83
2023/07/30 02:51:27;;;;;;;;;2.33;0.67;;;;;24.78;100.00;101140.78;5032249;28;66257;-85
2023/07/30 02:53:57;;;;;;;;;0.00;0.00;;;;;24.85;100.00;101144.97;5034411;28;45471;-84
2023/07/30 02:56:22;;;;;;;;;1.67;0.33;;;;;24.77;100.00;101129.13;5019024;28;45326;-84
2023/07/30 02:58:47;;;;;;;;;0.00;0.00;;;;;24.67;100.00;101121.47;5019984;28;62349;-84
2023/07/30 03:01:13;;;;;;;;;4.00;0.33;;;;;24.63;100.00;101138.75;5031289;28;69193;-84
2023/07/30 03:03:38;;;;;;;;;3.67;1.33;;;;;24.70;100.00;101132.13;5025768;28;56211;-84
2023/07/30 03:06:03;;;;;;;;;1.33;1.33;;;;;24.68;100.00;101137.59;5029580;28;45378;-85
2023/07/30 03:08:29;;;;;;;;;5.00;0.67;;;;;24.72;100.00;101141.06;5035393;28;45371;-84
2023/07/30 03:10:57;;;;;;;;;0.00;0.00;;;;;24.81;100.00;101146.91;5038377;28;47078;-84
2023/07/30 03:13:23;;;;;;;;;3.33;1.33;;;;;24.83;100.00;101147.75;5046104;28;46275;-84
2023/07/30 03:15:48;;;;;;;;;3.33;0.67;;;;;24.83;100.00;101139.66;5023491;28;59981;-84
2023/07/30 03:18:13;;;;;;;;;4.33;0.67;;;;;24.61;100.00;101144.22;5020325;28;60526;-83
2023/07/30 03:20:39;;;;;;;;;2.67;1.67;;;;;24.46;100.00;101142.16;5033493;28;46661;-83
2023/07/30 03:23:04;;;;;;;;;5.00;0.33;;;;;24.41;100.00;101131.53;5017427;28;67663;-84
2023/07/30 03:25:29;;;;;;;;;6.00;1.33;;;;;24.30;100.00;101131.09;5021699;28;57057;-83
2023/07/30 03:27:55;;;;;;;;;6.00;1.00;;;;;24.34;100.00;101140.78;5018608;28;62859;-85
2023/07/30 03:30:20;;;;;;;;;3.00;0.67;;;;;24.38;100.00;101134.34;5026217;28;69350;-85
2023/07/30 03:32:45;;;;;;;;;3.67;0.33;;;;;24.46;100.00;101142.16;5036618;28;66611;-84
2023/07/30 03:35:11;;;;;;;;;6.33;2.00;;;;;24.42;100.00;101140.53;5028446;28;45664;-83
2023/07/30 03:37:36;;;;;;;;;3.00;1.00;;;;;24.34;100.00;101140.78;5018353;28;56448;-84
2023/07/30 03:40:01;;;;;;;;;1.00;1.00;;;;;24.36;100.00;101151.56;5029530;28;69777;-84
2023/07/30 03:42:27;;;;;;;;;3.00;0.00;;;;;24.33;100.00;101147.13;5029389;28;45438;-84
2023/07/30 03:44:52;;;;;;;;;3.00;0.33;;;;;24.34;100.00;101156.97;5022402;28;61272;-84
2023/07/30 03:47:17;;;;;;;;;2.33;0.67;;;;;24.33;100.00;101157.06;5015444;28;58936;-84
2023/07/30 03:49:43;;;;;;;;;1.00;1.00;;;;;24.25;100.00;101157.38;5032591;28;56530;-84
2023/07/30 03:52:08;;;;;;;;;0.33;0.33;;;;;24.17;100.00;101159.50;5029438;28;63709;-84
2023/07/30 03:54:33;;;;;;;;;2.33;1.00;;;;;24.25;100.00;101163.66;5029272;28;45347;-83
2023/07/30 03:56:58;;;;;;;;;0.67;0.33;;;;;24.26;100.00;101162.72;5023607;28;58600;-84
2023/07/30 03:59:24;;;;;;;;;3.67;0.67;;;;;24.18;100.00;101163.94;5016185;28;69387;-84
2023/07/30 04:01:49;;;;;;;;;3.33;0.33;;;;;24.25;100.00;101170.88;5023580;28;45443;-83
2023/07/30 04:04:15;;;;;;;;;2.33;1.33;;;;;24.22;100.00;101177.25;5035402;28;45762;-84
2023/07/30 04:06:40;;;;;;;;;1.00;1.00;;;;;24.25;100.00;101178.97;5017351;28;59123;-85
2023/07/30 04:09:05;;;;;;;;;1.33;1.33;;;;;24.24;100.00;101177.22;5017218;28;66480;-84
2023/07/30 04:11:31;;;;;;;;;5.33;2.00;;;;;24.09;100.00;101183.22;5035721;28;45368;-83
2023/07/30 04:13:56;;;;;;;;;4.00;1.33;;;;;24.17;100.00;101173.84;5040569;28;62813;-84
2023/07/30 04:16:21;;;;;;;;;3.67;2.00;;;;;24.17;100.00;101184.66;5019584;28;45487;-84
2023/07/30 04:18:47;;;;;;;;;0.33;0.33;;;;;24.19;100.00;101179.22;5026249;28;45498;-84
2023/07/30 04:21:13;;;;;;;;;4.33;1.33;;;;;24.15;100.00;101185.66;5021077;28;46072;-83
2023/07/30 04:23:39;;;;;;;;;1.33;0.33;;;;;24.11;100.00;101181.31;5030481;28;45205;-83
2023/07/30 04:26:04;;;;;;;;;1.00;1.00;;;;;24.13;100.00;101185.75;5026992;28;45645;-82
2023/07/30 04:28:29;;;;;;;;;3.33;0.33;;;;;24.11;100.00;101189.41;5024196;28;45747;-81
2023/07/30 04:30:55;;;;;;;;;3.33;1.00;;;;;24.09;100.00;101192.19;5027417;28;45267;-83
2023/07/30 04:33:20;;;;;;;;;3.33;1.00;;;;;24.08;100.00;101185.03;5024436;28;45522;-83
2023/07/30 04:35:45;;;;;;;;;3.33;0.33;;;;;24.03;100.00;101192.44;5024462;28;60421;-83
2023/07/30 04:38:11;;;;;;;;;1.00;1.00;;;;;23.92;100.00;101195.56;5022265;28;65045;-82
2023/07/30 04:40:36;;;;;;;;;2.00;0.33;;;;;23.84;100.00;101194.06;5028701;28;62979;-82
2023/07/30 04:43:01;;;;;;;;;3.33;0.33;;;;;23.80;100.00;101198.69;5033453;28;60139;-83
2023/07/30 04:45:26;;;;;;;;;2.00;1.67;;;;;23.81;100.00;101208.56;5024145;28;56093;-82
2023/07/30 04:47:52;;;;;;;;;0.33;0.33;;;;;23.83;100.00;101214.78;5020652;28;67092;-83
2023/07/30 04:50:17;;;;;;;;;2.67;0.00;;;;;23.84;100.00;101213.81;5035413;28;67892;-83
2023/07/30 04:52:43;;;;;;;;;3.00;1.33;;;;;23.87;100.00;101212.84;5025788;28;45339;-83
2023/07/30 04:55:08;;;;;;;;;5.00;2.00;;;;;23.88;100.00;101215.47;5021861;28;45272;-84
2023/07/30 04:57:34;;;;;;;;;5.00;2.00;;;;;23.84;100.00;101216.53;5031211;28;45871;-83
2023/07/30 04:59:59;;;;;;;;;2.00;0.67;;;;;23.91;100.00;101225.25;5032076;28;45284;-83
2023/07/30 05:02:24;;;;;;;;;5.33;0.33;;;;;23.91;100.00;101225.25;5020004;28;45427;-83
2023/07/30 05:04:50;;;;;;;;;2.00;1.33;;;;;23.83;100.00;101232.78;5021319;28;50397;-83
2023/07/30 05:07:15;;;;;;;;;3.67;2.00;;;;;23.86;100.00;101232.63;5025071;28;45509;-83
2023/07/30 05:09:41;;;;;;;;;3.00;1.00;;;;;23.76;100.00;101235.72;5027423;28;68291;-83
2023/07/30 05:12:06;;;;;;;;;2.00;0.67;;;;;23.72;100.00;101244.84;5025480;28;62815;-84
2023/07/30 05:14:32;;;;;;;;;1.00;1.00;;;;;23.77;100.00;101250.94;5031137;28;45470;-83
2023/07/30 05:16:57;;;;;;;;;5.00;2.00;;;;;23.74;100.00;101253.75;5035549;28;65232;-84
2023/07/30 05:19:22;;;;;;;;;6.00;2.00;;;;;23.85;100.00;101256.03;5024157;28;59206;-83
2023/07/30 05:21:48;;;;;;;;;3.00;1.00;;;;;23.84;100.00;101256.09;5026311;28;45466;-83
2023/07/30 05:24:13;;;;;;;;;1.33;1.33;;;;;23.86;100.00;101254.22;5016420;28;45635;-83
2023/07/30 05:26:38;;;;;;;;;4.00;1.67;;;;;23.85;100.00;101258.72;5035702;28;47010;-83
2023/07/30 05:29:04;;;;;;;;;3.67;1.33;;;;;23.91;100.00;101252.22;5028707;28;69486;-83
2023/07/30 05:31:29;;;;;;;;;4.00;1.67;;;;;23.91;100.00;101254.94;5034525;28;60692;-82
2023/07/30 05:33:55;;;;;;;;;2.00;2.00;;;;;23.94;100.00;101257.53;5034711;28;45642;-84
2023/07/30 05:36:20;;;;;;;;;2.00;1.00;;;;;23.80;100.00;101260.72;5033808;28;47700;-83
2023/07/30 05:38:45;;;;;;;;;2.00;1.00;;;;;23.77;100.00;101255.47;5022225;28;57045;-83
2023/07/30 05:41:11;;;;;;;;;3.00;1.67;;;;;23.82;100.00;101260.69;5028233;28;48306;-83
2023/07/30 05:43:36;;;;;;;;;5.67;2.33;;;;;23.76;100.00;101259.09;5031138;28;57581;-82
2023/07/30 05:46:01;;;;;;;;;5.00;2.00;;;;;23.76;100.00;101256.41;5024410;28;47485;-83
2023/07/30 05:48:27;;;;;;;;;1.00;1.00;;;;;23.79;100.00;101253.56;5020312;28;45549;-82
2023/07/30 05:50:52;;;;;;;;;1.00;1.00;;;;;23.85;100.00;101253.34;5028528;28;45311;-82
2023/07/30 05:53:17;;;;;;;;;1.33;1.33;;;;;23.90;100.00;101251.34;5033938;28;57242;-84
2023/07/30 05:55:43;;;;;;;;;4.33;1.67;;;;;23.96;100.00;101252.94;5021493;28;46016;-82
2023/07/30 05:58:08;;;;;;;;;2.00;2.00;;;;;24.08;100.00;101252.50;5025816;28;68077;-83
2023/07/30 06:00:33;;;;;;;;;3.00;2.00;;;;;24.04;100.00;101257.13;5035158;28;63538;-83
2023/07/30 06:02:59;;;;;;;;;2.00;1.00;;;;;23.95;100.00;101252.06;5024402;28;45327;-83
2023/07/30 06:05:24;;;;;;;;;2.00;1.00;;;;;23.94;100.00;101258.41;5025490;28;66215;-83
2023/07/30 06:07:49;;;;;;;;;4.33;2.00;;;;;23.94;100.00;101261.09;5036183;28;55310;-83
2023/07/30 06:10:15;;;;;;;;;2.00;2.00;;;;;23.95;100.00;101265.53;5030385;28;51409;-81
2023/07/30 06:12:40;;;;;;;;;3.00;0.00;;;;;23.87;100.00;101272.19;5021381;28;45534;-83
2023/07/30 06:15:07;;;;;;;;;4.00;1.33;;;;;23.92;100.00;101267.50;5038871;28;47221;-83
2023/07/30 06:17:32;;;;;;;;;5.00;2.00;;;;;23.91;100.00;101269.28;5036049;28;46596;-83
2023/07/30 06:19:57;;;;;;;;;2.67;1.33;;;;;24.00;100.00;101262.69;5027799;28;62747;-83
2023/07/30 06:22:22;;;;;;;;;3.67;1.00;;;;;23.95;100.00;101268.25;5038343;28;60359;-83
2023/07/30 06:24:48;;;;;;;;;2.00;2.00;;;;;23.85;100.00;101276.75;5028146;28;71587;-83
2023/07/30 06:27:13;;;;;;;;;4.00;1.00;;;;;23.86;100.00;101282.06;5031963;28;64124;-83
2023/07/30 06:29:38;;;;;;;;;1.00;0.33;;;;;23.85;100.00;101287.53;5031762;28;61200;-82
2023/07/30 06:32:04;;;;;;;;;2.00;1.33;;;;;23.88;100.00;101288.31;5019630;28;61377;-82
2023/07/30 06:34:29;;;;;;;;;2.67;0.67;;;;;23.90;100.00;101290.94;5021874;28;46841;-83
2023/07/30 06:36:55;;;;;;;;;3.00;2.00;;;;;23.92;100.00;101302.56;5035064;28;65332;-83
2023/07/30 06:39:21;;;;;;;;;7.00;2.00;;;;;23.95;100.00;101308.72;5033303;28;63387;-83
2023/07/30 06:41:46;;;;;;;;;4.00;0.33;;;;;24.12;100.00;101304.50;5030092;28;45459;-83
2023/07/30 06:44:12;;;;;;;;;4.67;1.67;;;;;24.17;100.00;101308.78;5030572;28;46791;-83
2023/07/30 06:46:37;;;;;;;;;1.33;1.33;;;;;24.31;100.00;101306.44;5031214;28;66106;-83
2023/07/30 06:49:02;;;;;;;;;3.67;1.67;;;;;24.42;100.00;101306.06;5030455;28;45348;-82
2023/07/30 06:51:28;;;;;;;;;1.67;1.67;;;;;24.49;100.00;101304.88;5027721;28;57511;-83
2023/07/30 06:53:53;;;;;;;;;3.33;1.33;;;;;24.50;100.00;101303.03;5013470;28;48268;-82
2023/07/30 06:56:19;;;;;;;;;2.00;2.00;;;;;24.54;100.00;101300.16;5017943;28;45934;-82
2023/07/30 06:58:44;;;;;;;;;3.00;1.33;;;;;24.50;100.00;101295.84;5016748;28;54191;-83
2023/07/30 07:01:09;;;;;;;;;1.33;0.67;;;;;24.53;100.00;101305.63;5034633;28;58273;-83
2023/07/30 07:03:35;;;;;;;;;3.00;1.67;;;;;24.52;100.00;101301.19;5034385;28;67260;-84
2023/07/30 07:06:00;;;;;;;;;2.67;1.67;;;;;24.63;100.00;101306.16;5036205;28;45590;-83
2023/07/30 07:08:27;;;;;;;;;4.33;2.00;;;;;24.61;100.00;101313.44;5025074;28;60822;-82
2023/07/30 07:10:52;;;;;;;;;1.33;1.33;;;;;24.64;100.00;101311.50;5024762;28;45543;-83
2023/07/30 07:13:18;;;;;;;;;2.33;1.33;;;;;24.66;100.00;101306.03;5022784;28;60973;-83
2023/07/30 07:15:43;;;;;;;;;3.67;3.00;;;;;24.74;100.00;101310.19;5037800;28;45133;-83
2023/07/30 07:18:09;;;;;;;;;1.33;1.33;;;;;24.78;100.00;101314.53;5020128;28;45372;-82
2023/07/30 07:20:35;;;;;;;;;1.67;1.67;;;;;24.74;100.00;101309.31;5021778;28;45625;-83
2023/07/30 07:23:00;;;;;;;;;3.00;1.67;;;;;24.81;100.00;101313.50;5032163;28;46855;-83
2023/07/30 07:25:26;;;;;;;;;3.00;3.00;;;;;24.85;100.00;101316.97;5024373;28;65386;-84
2023/07/30 07:27:51;;;;;;;;;1.67;1.00;;;;;24.95;100.00;101312.97;5037144;28;58936;-83
2023/07/30 07:30:16;;;;;;;;;3.67;1.67;;;;;24.95;100.00;101313.84;5029128;28;51484;-83
2023/07/30 07:32:42;;;;;;;;;3.00;1.67;;;;;25.05;100.00;101311.63;5035613;28;50581;-83
2023/07/30 07:35:08;;;;;;;;;2.33;1.67;;;;;25.03;100.00;101318.91;5032587;28;45270;-83
2023/07/30 07:37:33;;;;;;;;;2.67;2.33;;;;;25.04;100.00;101323.41;5025021;28;45334;-84
2023/07/30 07:39:58;;;;;;;;;6.67;3.00;;;;;24.99;100.00;101320.00;5028342;28;56663;-84
2023/07/30 07:42:24;;;;;;;;;2.33;2.00;;;;;24.99;100.00;101320.88;5029266;28;67208;-83
2023/07/30 07:44:49;;;;;;;;;2.33;2.33;;;;;25.02;100.00;101327.97;5030075;28;61318;-82
2023/07/30 07:47:15;;;;;;;;;2.67;1.67;;;;;25.18;100.00;101336.34;5036190;28;45499;-83
2023/07/30 07:49:40;;;;;;;;;2.00;1.00;;;;;25.29;100.00;101325.97;5037594;28;45485;-83
2023/07/30 07:52:06;;;;;;;;;3.67;3.00;;;;;25.33;100.00;101327.59;5037549;28;47396;-83
2023/07/30 07:54:31;;;;;;;;;2.00;2.00;;;;;25.46;100.00;101339.66;5035858;28;45266;-83
2023/07/30 07:56:57;;;;;;;;;3.33;2.67;;;;;25.59;100.00;101337.31;5031772;28;45414;-84
2023/07/30 07:59:23;;;;;;;;;4.00;2.00;;;;;25.65;100.00;101344.25;5016419;28;60974;-84
2023/07/30 08:01:48;;;;;;;;;1.67;0.00;;;;;25.76;100.00;101347.41;5020303;28;45356;-84
2023/07/30 08:04:13;;;;;;;;;2.00;1.00;;;;;25.77;100.00;101341.03;5035376;28;45430;-84
2023/07/30 08:06:39;;;;;;;;;4.00;3.00;;;;;25.82;100.00;101357.97;5023919;28;61504;-84
2023/07/30 08:09:05;;;;;;;;;1.00;1.00;;;;;25.82;100.00;101356.13;5019294;28;57878;-83
2023/07/30 08:11:30;;;;;;;;;1.00;1.00;;;;;25.82;100.00;101361.53;5034726;28;47508;-83
2023/07/30 08:13:56;;;;;;;;;2.00;2.00;;;;;25.81;100.00;101348.09;5034718;28;63601;-83
2023/07/30 08:16:22;;;;;;;;;1.67;1.67;;;;;25.81;100.00;101339.97;5035580;28;45313;-84
2023/07/30 08:18:47;;;;;;;;;2.33;2.33;;;;;25.95;100.00;101345.66;5029749;28;45459;-83
2023/07/30 08:21:13;;;;;;;;;4.67;2.00;;;;;26.09;100.00;101340.47;5015617;28;68648;-82
2023/07/30 08:23:38;;;;;;;;;2.00;1.00;;;;;26.27;100.00;101346.03;5023779;28;45412;-82
2023/07/30 08:26:03;;;;;;;;;4.67;3.00;;;;;26.34;98.56;101337.53;5028499;28;45485;-81
2023/07/30 08:28:29;;;;;;;;;7.33;2.33;;;;;26.32;99.03;101335.84;5035244;28;54314;-83
2023/07/30 08:31:00;;;;;;;;;3.33;1.33;;;;;26.51;98.38;101341.31;5035511;28;45816;-84
2023/07/30 08:33:26;;;;;;;;;3.33;1.33;;;;;26.57;97.54;101341.88;5027741;28;45323;-83
2023/07/30 08:35:58;;;;;;;;;3.00;2.00;;;;;26.49;96.75;101340.50;5024720;28;45327;-83
2023/07/30 08:38:24;;;;;;;;;3.67;1.00;;;;;26.62;96.88;101345.25;5023478;28;45581;-83
2023/07/30 08:40:50;;;;;;;;;6.67;1.67;;;;;26.71;96.24;101343.94;5035264;28;47066;-83
2023/07/30 08:43:16;;;;;;;;;2.33;1.00;;;;;26.87;95.61;101342.25;5035664;28;45512;-83
2023/07/30 08:45:41;;;;;;;;;4.00;2.00;;;;;26.87;96.34;101346.78;5036586;28;45273;-85
2023/07/30 08:48:07;;;;;;;;;3.67;2.00;;;;;26.90;95.38;101349.38;5022729;28;45312;-83
2023/07/30 08:50:32;;;;;;;;;3.00;1.67;;;;;26.97;94.47;101345.38;5036290;28;46656;-84
2023/07/30 08:52:59;;;;;;;;;3.00;1.33;;;;;27.05;94.37;101348.59;5035479;28;45325;-84
2023/07/30 08:55:26;;;;;;;;;4.67;2.00;;;;;27.09;93.87;101336.69;5023466;28;45289;-84
2023/07/30 08:57:53;;;;;;;;;1.00;1.00;;;;;27.25;94.21;101335.91;5014829;28;45531;-83
2023/07/30 09:00:22;;;;;;;;;1.33;1.33;;;;;27.29;92.60;101348.38;5018769;28;47596;-83
2023/07/30 09:02:50;;;;;;;;;3.33;1.00;;;;;27.40;90.28;101341.44;5024248;28;45418;-82
2023/07/30 09:05:15;;;;;;;;;2.00;2.00;;;;;27.34;92.04;101338.16;5017001;28;45318;-83
2023/07/30 09:07:41;;;;;;;;;3.33;2.00;;;;;27.34;90.11;101340.88;5031632;28;45610;-84
2023/07/30 09:10:07;;;;;;;;;2.00;2.00;;;;;27.30;90.32;101341.97;5036873;28;46430;-83
2023/07/30 09:12:33;;;;;;;;;2.00;2.00;;;;;27.39;89.99;101345.09;5023077;28;45185;-82
2023/07/30 09:15:00;;;;;;;;;2.00;2.00;;;;;27.44;89.64;101338.56;5021897;28;45452;-83
2023/07/30 09:17:25;;;;;;;;;1.00;1.00;;;;;27.46;89.23;101328.50;5029778;28;45563;-83
2023/07/30 09:19:52;;;;;;;;;5.33;2.00;;;;;27.53;89.80;101329.94;5024295;28;47201;-82
2023/07/30 09:22:27;;;;;;;;;2.00;2.00;;;;;27.55;87.55;101336.19;5035665;28;45499;-83
2023/07/30 09:24:54;;;;;;;;;4.33;1.00;;;;;27.62;86.97;101340.31;5028954;28;45502;-83
2023/07/30 09:27:22;;;;;;;;;2.00;1.00;;;;;27.71;86.75;101333.59;5034250;28;45749;-83
2023/07/30 09:29:52;;;;;;;;;4.00;2.00;;;;;27.83;84.95;101330.22;5023136;28;46773;-82
2023/07/30 09:32:18;;;;;;;;;1.00;1.00;;;;;27.95;85.68;101329.53;5022346;28;45480;-83
2023/07/30 09:34:45;;;;;;;;;4.00;1.00;;;;;27.90;85.11;101328.91;5028587;28;45306;-83
2023/07/30 09:37:10;;;;;;;;;2.00;2.00;;;;;27.78;82.98;101327.72;5023117;28;45306;-83
2023/07/30 09:39:37;;;;;;;;;2.67;2.00;;;;;27.81;84.49;101324.88;5024192;28;47202;-83
2023/07/30 09:42:02;;;;;;;;;2.00;2.00;;;;;27.59;84.81;101330.53;5038742;28;45524;-84
2023/07/30 09:44:28;;;;;;;;;1.00;1.00;;;;;27.39;85.32;101336.97;5036196;28;45564;-83
2023/07/30 09:46:53;;;;;;;;;1.00;1.00;;;;;27.35;84.94;101350.75;5029863;28;63110;-83
2023/07/30 09:49:18;;;;;;;;;4.00;1.00;;;;;27.30;85.36;101347.41;5037500;28;65586;-83
2023/07/30 09:51:44;;;;;;;;;3.33;3.00;;;;;27.36;84.65;101341.66;5033024;28;45907;-83
2023/07/30 09:54:14;;;;;;;;;4.00;2.00;;;;;27.33;84.14;101344.53;5039181;28;45439;-83
2023/07/30 09:56:41;;;;;;;;;3.00;2.00;;;;;27.31;84.24;101346.44;5021697;28;45520;-83
2023/07/30 09:59:07;;;;;;;;;2.00;2.00;;;;;27.32;85.39;101345.47;5017754;28;46593;-83
2023/07/30 10:01:37;;;;;;;;;4.00;0.67;;;;;27.33;83.68;101349.97;5035038;28;45383;-83
2023/07/30 10:04:08;;;;;;;;;3.00;1.00;;;;;27.24;84.01;101347.72;5024397;28;45493;-83
2023/07/30 10:06:41;;;;;;;;;2.67;2.00;;;;;27.29;83.98;101351.06;5025557;28;45185;-83
2023/07/30 10:09:07;;;;;;;;;3.00;1.00;;;;;27.22;83.27;101371.28;5037825;28;47358;-84
2023/07/30 10:11:32;;;;;;;;;4.33;1.33;;;;;27.19;80.77;101368.75;5037548;28;45384;-83
2023/07/30 10:13:58;;;;;;;;;2.00;1.00;;;;;27.20;80.19;101365.97;5036517;28;65285;-84
2023/07/30 10:16:27;;;;;;;;;2.00;1.33;;;;;27.23;80.43;101357.69;5022787;28;58739;-84
2023/07/30 10:18:57;;;;;;;;;3.33;2.00;;;;;27.21;79.63;101361.41;5027869;28;46792;-83
2023/07/30 10:21:23;;;;;;;;;2.00;2.00;;;;;27.23;79.93;101362.25;5028921;28;45318;-84
2023/07/30 10:24:03;;;;;;;;;3.00;2.00;;;;;27.27;78.65;101371.94;5037908;28;45309;-84
2023/07/30 10:26:32;;;;;;;;;1.67;1.67;;;;;27.38;79.10;101389.47;5037017;28;45623;-83
2023/07/30 10:29:27;;;;;;;;;1.00;1.00;;;;;27.68;77.64;101377.97;5037714;28;45693;-83
2023/07/30 10:31:56;;;;;;;;;1.00;1.00;;;;;27.87;76.78;101372.53;5008793;28;67408;-82
2023/07/30 10:34:22;;;;;;;;;3.00;2.00;;;;;27.99;76.16;101376.41;5028163;28;45256;-82
2023/07/30 10:36:50;;;;;;;;;2.00;2.00;;;;;28.16;75.58;101379.97;5030466;28;45480;-83
2023/07/30 10:39:21;;;;;;;;;1.00;1.00;;;;;28.21;74.19;101374.31;5027358;28;47668;-82
2023/07/30 10:41:49;;;;;;;;;1.33;1.33;;;;;28.27;72.58;101386.66;5037534;28;45528;-83
2023/07/30 10:44:29;;;;;;;;;2.67;2.00;;;;;28.27;73.61;101373.97;5039030;28;45482;-82
2023/07/30 10:46:56;;;;;;;;;4.00;2.00;;;;;28.55;71.55;101370.66;5036183;28;45397;-82
2023/07/30 10:49:21;;;;;;;;;6.00;3.00;;;;;28.61;71.54;101373.03;5038309;28;45222;-83
2023/07/30 10:51:46;;;;;;;;;3.00;1.33;;;;;28.58;70.88;101356.00;5037156;28;45468;-82
2023/07/30 10:54:12;;;;;;;;;4.33;2.00;;;;;28.53;71.55;101350.84;5037787;28;45469;-83
2023/07/30 10:56:38;;;;;;;;;4.00;2.00;;;;;28.49;71.36;101353.81;5038520;28;45459;-83
2023/07/30 10:59:05;;;;;;;;;1.67;1.67;;;;;28.56;72.53;101347.09;5026149;28;46462;-83
2023/07/30 11:01:31;;;;;;;;;2.00;1.00;;;;;28.79;69.55;101360.25;5030097;28;45278;-82
2023/07/30 11:03:57;;;;;;;;;3.00;2.00;;;;;29.02;69.60;101364.38;5026068;28;51268;-82
2023/07/30 11:06:26;;;;;;;;;2.00;2.00;;;;;29.13;69.20;101361.91;5030507;28;45497;-82
2023/07/30 11:08:52;;;;;;;;;1.67;1.67;;;;;29.14;67.04;101365.53;5030751;28;47462;-81
2023/07/30 11:11:17;;;;;;;;;2.67;1.00;;;;;29.01;65.50;101373.50;5034891;28;45406;-82
2023/07/30 11:13:46;;;;;;;;;1.67;1.67;;;;;28.69;65.73;101367.16;5037048;28;45342;-82